createdAt,value
2022-08-20T00:01:01.695Z,77.47
2022-08-20T00:03:33.253Z,76.60
2022-08-20T00:06:03.076Z,75.00
2022-08-20T00:08:32.114Z,76.07
2022-08-20T00:11:01.500Z,76.77
2022-08-20T00:13:32.745Z,77.40
2022-08-20T00:16:00.832Z,79.10
2022-08-20T00:18:28.879Z,77.67
2022-08-20T00:20:57.615Z,79.70
2022-08-20T00:23:26.155Z,78.50
2022-08-20T00:25:54.349Z,83.60
2022-08-20T00:28:22.342Z,81.50
2022-08-20T00:30:51.907Z,79.57
2022-08-20T00:33:22.526Z,81.40
2022-08-20T00:35:53.196Z,80.13
2022-08-20T00:38:21.807Z,80.20
2022-08-20T00:40:52.531Z,79.73
2022-08-20T00:43:31.315Z,79.27
2022-08-20T00:46:01.958Z,79.70
2022-08-20T00:48:33.246Z,81.73
2022-08-20T00:51:06.822Z,81.10
2022-08-20T00:53:36.680Z,77.77
2022-08-20T00:56:05.881Z,79.00
2022-08-20T00:58:34.488Z,80.17
2022-08-20T01:01:04.604Z,82.27
2022-08-20T01:03:33.288Z,82.30
2022-08-20T01:06:01.645Z,79.47
2022-08-20T01:08:29.751Z,80.90
2022-08-20T01:11:10.030Z,79.70
2022-08-20T01:13:39.669Z,81.87
2022-08-20T01:16:17.574Z,81.37
2022-08-20T01:18:48.282Z,79.17
2022-08-20T01:21:18.963Z,80.20
2022-08-20T01:23:51.169Z,81.67
2022-08-20T01:26:22.894Z,79.67
2022-08-20T01:28:54.063Z,80.30
2022-08-20T01:31:24.001Z,79.60
2022-08-20T01:33:53.897Z,81.87
2022-08-20T01:36:26.129Z,83.13
2022-08-20T01:38:54.929Z,80.57
2022-08-20T01:41:43.794Z,82.67
2022-08-20T01:44:17.007Z,80.60
2022-08-20T01:46:49.908Z,80.67
2022-08-20T01:49:23.096Z,82.97
2022-08-20T01:51:52.980Z,83.40
2022-08-20T01:54:21.723Z,82.00
2022-08-20T01:56:57.165Z,83.10
2022-08-20T01:59:25.651Z,81.80
2022-08-20T02:01:54.169Z,80.27
2022-08-20T02:04:22.566Z,79.43
2022-08-20T02:06:56.325Z,83.83
2022-08-20T02:09:26.200Z,79.47
2022-08-20T02:11:55.537Z,79.67
2022-08-20T02:14:23.607Z,80.60
2022-08-20T02:16:55.115Z,80.20
2022-08-20T02:19:27.208Z,78.27
2022-08-20T02:21:58.681Z,81.80
2022-08-20T02:24:26.739Z,80.60
2022-08-20T02:26:56.202Z,79.60
2022-08-20T02:29:26.162Z,80.30
2022-08-20T02:32:32.270Z,79.00
2022-08-20T02:34:43.234Z,80.40
2022-08-20T02:37:11.734Z,80.93
2022-08-20T02:39:41.029Z,79.40
2022-08-20T02:42:12.205Z,81.97
2022-08-20T02:44:40.754Z,81.53
2022-08-20T02:47:09.168Z,78.23
2022-08-20T02:49:37.204Z,80.43
2022-08-20T02:52:05.665Z,79.73
2022-08-20T02:54:33.765Z,79.73
2022-08-20T02:57:03.686Z,82.63
2022-08-20T02:59:33.668Z,79.70
2022-08-20T03:02:02.233Z,80.60
2022-08-20T03:04:30.590Z,80.37
2022-08-20T03:06:58.744Z,79.20
2022-08-20T03:09:27.012Z,82.07
2022-08-20T03:11:55.077Z,80.97
2022-08-20T03:14:23.108Z,80.70
2022-08-20T03:16:52.801Z,81.77
2022-08-20T03:19:20.964Z,78.97
2022-08-20T03:21:48.962Z,80.60
2022-08-20T03:24:17.017Z,80.53
2022-08-20T03:26:45.032Z,79.17
2022-08-20T03:29:13.600Z,79.50
2022-08-20T03:31:41.738Z,80.00
2022-08-20T03:34:11.088Z,78.17
2022-08-20T03:36:39.387Z,80.17
2022-08-20T03:39:11.652Z,81.90
2022-08-20T03:41:39.862Z,80.90
2022-08-20T03:44:07.960Z,79.60
2022-08-20T03:46:36.125Z,79.47
2022-08-20T03:49:04.539Z,80.37
2022-08-20T03:51:57.913Z,81.07
2022-08-20T03:54:22.529Z,79.80
2022-08-20T03:56:50.497Z,81.23
2022-08-20T03:59:18.641Z,79.40
2022-08-20T04:01:47.133Z,80.03
2022-08-20T04:04:15.541Z,82.10
2022-08-20T04:06:47.529Z,80.43
2022-08-20T04:09:15.890Z,80.37
2022-08-20T04:11:43.979Z,81.00
2022-08-20T04:14:18.460Z,80.07
2022-08-20T04:16:48.923Z,79.87
2022-08-20T04:19:17.507Z,80.20
2022-08-20T04:21:48.442Z,84.00
2022-08-20T04:24:27.508Z,81.10
2022-08-20T04:27:00.921Z,79.40
2022-08-20T04:29:32.043Z,81.07
2022-08-20T04:32:02.796Z,80.33
2022-08-20T04:34:34.699Z,80.00
2022-08-20T04:37:04.408Z,81.23
2022-08-20T04:39:32.483Z,81.50
2022-08-20T04:41:59.750Z,81.70
2022-08-20T04:44:28.115Z,83.00
2022-08-20T04:46:56.141Z,82.80
2022-08-20T04:49:26.405Z,83.77
2022-08-20T04:51:55.717Z,84.27
2022-08-20T04:54:25.033Z,85.27
2022-08-20T04:56:53.023Z,87.90
2022-08-20T04:59:21.041Z,83.70
2022-08-20T05:01:49.008Z,85.90
2022-08-20T05:04:16.976Z,83.47
2022-08-20T05:06:45.306Z,82.73
2022-08-20T05:09:13.249Z,86.77
2022-08-20T05:11:42.616Z,83.87
2022-08-20T05:14:11.128Z,87.40
2022-08-20T05:16:39.769Z,84.10
2022-08-20T05:19:08.988Z,85.47
2022-08-20T05:21:37.486Z,84.57
2022-08-20T05:24:05.985Z,84.43
2022-08-20T05:26:34.394Z,87.57
2022-08-20T05:29:06.741Z,86.60
2022-08-20T05:31:35.215Z,87.77
2022-08-20T05:34:03.837Z,88.87
2022-08-20T05:36:31.865Z,88.47
2022-08-20T05:39:00.079Z,91.03
2022-08-20T05:41:30.502Z,88.30
2022-08-20T05:44:01.371Z,88.20
2022-08-20T05:46:32.407Z,91.93
2022-08-20T05:49:01.823Z,89.37
2022-08-20T05:51:30.884Z,90.00
2022-08-20T05:53:59.851Z,89.53
2022-08-20T05:56:31.157Z,92.40
2022-08-20T05:59:02.599Z,89.00
2022-08-20T06:01:32.803Z,87.60
2022-08-20T06:04:18.575Z,94.80
2022-08-20T06:06:47.534Z,96.00
2022-08-20T06:09:30.720Z,90.53
2022-08-20T06:12:00.417Z,93.20
2022-08-20T06:14:28.400Z,91.07
2022-08-20T06:17:03.661Z,92.37
2022-08-20T06:19:33.348Z,91.67
2022-08-20T06:22:01.470Z,93.67
2022-08-20T06:24:29.609Z,89.03
2022-08-20T06:26:58.872Z,92.63
2022-08-20T06:29:27.735Z,91.13
2022-08-20T06:31:57.560Z,90.40
2022-08-20T06:34:28.409Z,93.00
2022-08-20T06:36:59.276Z,96.13
2022-08-20T06:39:29.109Z,89.00
2022-08-20T06:41:58.604Z,90.60
2022-08-20T06:44:28.541Z,91.37
2022-08-20T06:47:01.510Z,93.57
2022-08-20T06:49:34.185Z,94.23
2022-08-20T06:52:04.462Z,87.70
2022-08-20T06:54:34.277Z,93.50
2022-08-20T06:57:02.589Z,94.67
2022-08-20T06:59:30.610Z,88.97
2022-08-20T07:02:00.103Z,89.73
2022-08-20T07:04:28.183Z,92.47
2022-08-20T07:06:57.707Z,95.97
2022-08-20T07:09:27.517Z,87.87
2022-08-20T07:11:56.167Z,89.13
2022-08-20T07:14:24.244Z,90.20
2022-08-20T07:16:52.273Z,88.77
2022-08-20T07:19:21.759Z,87.13
2022-08-20T07:21:50.751Z,89.50
2022-08-20T07:24:19.297Z,88.43
2022-08-20T07:26:47.275Z,90.10
2022-08-20T07:29:15.267Z,90.00
2022-08-20T07:31:59.953Z,89.90
2022-08-20T07:34:31.376Z,92.90
2022-08-20T07:37:00.273Z,89.20
2022-08-20T07:39:28.536Z,91.27
2022-08-20T07:42:03.985Z,89.70
2022-08-20T07:44:31.984Z,86.90
2022-08-20T07:47:00.344Z,88.27
2022-08-20T07:49:30.026Z,87.80
2022-08-20T07:51:58.008Z,87.27
2022-08-20T07:54:27.441Z,87.77
2022-08-20T07:57:02.494Z,84.37
2022-08-20T07:59:30.993Z,91.90
2022-08-20T08:01:59.477Z,84.50
2022-08-20T08:04:28.789Z,88.97
2022-08-20T08:07:00.088Z,84.17
2022-08-20T08:09:28.818Z,85.00
2022-08-20T08:11:59.078Z,85.63
2022-08-20T08:14:29.376Z,86.80
2022-08-20T08:16:59.172Z,87.03
2022-08-20T08:19:34.375Z,87.13
2022-08-20T08:22:02.339Z,85.40
2022-08-20T08:24:30.360Z,83.50
2022-08-20T08:26:58.317Z,84.47
2022-08-20T08:29:26.610Z,86.03
2022-08-20T08:31:54.584Z,83.97
2022-08-20T08:34:24.979Z,84.13
2022-08-20T08:36:54.476Z,84.00
2022-08-20T08:39:24.101Z,85.80
2022-08-20T08:42:03.021Z,85.63
2022-08-20T08:44:35.879Z,85.47
2022-08-20T08:47:13.777Z,86.40
2022-08-20T08:49:41.766Z,81.60
2022-08-20T08:52:14.732Z,84.40
2022-08-20T08:54:47.305Z,88.87
2022-08-20T08:57:15.662Z,84.50
2022-08-20T08:59:48.769Z,86.27
2022-08-20T09:02:31.951Z,83.67
2022-08-20T09:05:02.148Z,83.47
2022-08-20T09:07:33.202Z,86.87
2022-08-20T09:10:02.644Z,90.20
2022-08-20T09:12:30.876Z,84.47
2022-08-20T09:14:58.909Z,85.20
2022-08-20T09:17:26.862Z,84.30
2022-08-20T09:19:54.893Z,82.77
2022-08-20T09:22:25.961Z,83.47
2022-08-20T09:24:56.266Z,82.77
2022-08-20T09:27:24.199Z,86.30
2022-08-20T09:29:53.419Z,84.40
2022-08-20T09:32:24.959Z,82.30
2022-08-20T09:34:56.817Z,86.03
2022-08-20T09:37:26.474Z,83.17
2022-08-20T09:39:56.421Z,83.07
2022-08-20T09:42:26.603Z,81.83
2022-08-20T09:44:54.833Z,81.30
2022-08-20T09:47:22.860Z,81.80
2022-08-20T09:49:50.823Z,80.00
2022-08-20T09:52:22.460Z,79.80
2022-08-20T09:54:52.052Z,83.53
2022-08-20T09:57:21.682Z,83.43
2022-08-20T09:59:53.055Z,79.50
2022-08-20T10:02:21.122Z,93.00
2022-08-20T10:04:49.092Z,81.30
2022-08-20T10:07:17.056Z,76.57
2022-08-20T10:09:45.114Z,78.40
2022-08-20T10:12:13.359Z,78.57
2022-08-20T10:14:42.700Z,77.37
2022-08-20T10:17:10.854Z,76.03
2022-08-20T10:19:38.985Z,78.40
2022-08-20T10:22:07.018Z,81.20
2022-08-20T10:24:35.558Z,77.90
2022-08-20T10:27:04.005Z,78.17
2022-08-20T10:29:32.738Z,80.70
2022-08-20T10:32:09.897Z,78.50
2022-08-20T10:34:37.837Z,77.17
2022-08-20T10:37:05.818Z,82.87
2022-08-20T10:39:33.845Z,80.80
2022-08-20T10:42:02.099Z,80.77
2022-08-20T10:44:30.059Z,83.03
2022-08-20T10:46:58.046Z,79.30
2022-08-20T10:49:28.033Z,77.87
2022-08-20T10:51:56.516Z,80.13
2022-08-20T10:54:25.287Z,83.00
2022-08-20T10:56:53.196Z,79.30
2022-08-20T10:59:21.160Z,82.50
2022-08-20T11:01:49.760Z,82.20
2022-08-20T11:04:17.734Z,81.07
2022-08-20T11:06:47.292Z,80.40
2022-08-20T11:09:15.191Z,80.53
2022-08-20T11:11:43.135Z,81.20
2022-08-20T11:14:12.237Z,80.00
2022-08-20T11:16:40.211Z,86.00
2022-08-20T11:19:08.167Z,82.10
2022-08-20T11:21:36.138Z,80.77
2022-08-20T11:24:05.956Z,82.07
2022-08-20T11:26:33.962Z,80.77
2022-08-20T11:29:03.153Z,82.97
2022-08-20T11:31:31.106Z,83.20
2022-08-20T11:33:59.112Z,79.37
2022-08-20T11:36:27.098Z,80.30
2022-08-20T11:38:55.121Z,81.63
2022-08-20T11:41:24.503Z,79.60
2022-08-20T11:44:17.489Z,88.57
2022-08-20T11:46:40.440Z,82.00
2022-08-20T11:49:08.540Z,87.80
2022-08-20T11:51:49.627Z,81.30
2022-08-20T11:54:18.424Z,85.10
2022-08-20T11:56:48.152Z,87.73
2022-08-20T11:59:16.612Z,82.30
2022-08-20T12:01:49.918Z,83.60
2022-08-20T12:04:33.554Z,88.20
2022-08-20T12:07:10.214Z,81.70
2022-08-20T12:09:41.996Z,82.87
2022-08-20T12:12:22.318Z,84.40
2022-08-20T12:14:50.782Z,83.00
2022-08-20T12:17:23.528Z,85.10
2022-08-20T12:19:53.393Z,83.20
2022-08-20T12:22:25.145Z,87.13
2022-08-20T12:24:54.119Z,82.17
2022-08-20T12:27:27.766Z,87.50
2022-08-20T12:29:58.111Z,85.93
2022-08-20T12:32:28.636Z,80.97
2022-08-20T12:34:57.175Z,84.30
2022-08-20T12:37:27.266Z,81.40
2022-08-20T12:39:57.153Z,87.70
2022-08-20T12:42:27.615Z,85.50
2022-08-20T12:44:56.030Z,86.37
2022-08-20T12:47:25.590Z,84.57
2022-08-20T12:49:55.209Z,85.10
2022-08-20T12:52:24.476Z,84.60
2022-08-20T12:54:52.853Z,83.87
2022-08-20T12:57:28.637Z,83.80
2022-08-20T12:59:57.400Z,83.93
2022-08-20T13:02:27.489Z,84.83
2022-08-20T13:04:55.799Z,86.73
2022-08-20T13:07:26.315Z,86.17
2022-08-20T13:09:55.839Z,85.40
2022-08-20T13:12:24.932Z,87.70
2022-08-20T13:14:54.379Z,83.50
2022-08-20T13:17:37.981Z,86.77
2022-08-20T13:20:09.703Z,86.00
2022-08-20T13:22:37.899Z,87.10
2022-08-20T13:25:07.311Z,89.13
2022-08-20T13:27:38.314Z,88.23
2022-08-20T13:30:09.863Z,85.20
2022-08-20T13:32:37.939Z,90.60
2022-08-20T13:35:06.817Z,85.30
2022-08-20T13:37:35.140Z,88.87
2022-08-20T13:40:03.574Z,88.50
2022-08-20T13:42:32.053Z,91.53
2022-08-20T13:45:00.024Z,88.87
2022-08-20T13:47:32.428Z,90.87
2022-08-20T13:50:02.005Z,91.87
2022-08-20T13:52:30.024Z,89.50
2022-08-20T13:54:58.870Z,87.93
2022-08-20T13:57:27.670Z,89.33
2022-08-20T13:59:57.464Z,89.93
2022-08-20T14:02:26.362Z,89.60
2022-08-20T14:04:56.076Z,89.27
2022-08-20T14:07:28.744Z,86.13
2022-08-20T14:10:01.122Z,88.50
2022-08-20T14:12:30.885Z,90.93
2022-08-20T14:14:59.380Z,87.30
2022-08-20T14:17:30.187Z,87.20
2022-08-20T14:20:02.019Z,90.90
2022-08-20T14:22:31.527Z,87.67
2022-08-20T14:25:02.952Z,87.77
2022-08-20T14:27:32.649Z,85.40
2022-08-20T14:30:01.122Z,87.67
2022-08-20T14:32:29.240Z,92.03
2022-08-20T14:34:59.324Z,86.07
2022-08-20T14:37:32.865Z,91.90
2022-08-20T14:40:02.984Z,90.97
2022-08-20T14:42:31.573Z,88.33
2022-08-20T14:45:02.215Z,87.80
2022-08-20T14:47:32.081Z,87.77
2022-08-20T14:50:04.731Z,88.60
2022-08-20T14:52:36.550Z,88.03
2022-08-20T14:55:05.702Z,87.27
2022-08-20T14:57:34.247Z,87.27
2022-08-20T15:00:02.437Z,85.57
2022-08-20T15:02:31.094Z,88.20
2022-08-20T15:04:59.098Z,91.37
2022-08-20T15:07:29.070Z,86.97
2022-08-20T15:10:00.405Z,92.77
2022-08-20T15:12:28.900Z,90.43
2022-08-20T15:14:59.664Z,89.57
2022-08-20T15:17:29.539Z,87.07
2022-08-20T15:19:58.227Z,89.00
2022-08-20T15:22:26.513Z,90.80
2022-08-20T15:24:57.604Z,87.10
2022-08-20T15:27:27.516Z,91.30
2022-08-20T15:29:55.621Z,95.43
2022-08-20T15:32:23.733Z,87.63
2022-08-20T15:34:51.788Z,87.60
2022-08-20T15:37:21.788Z,92.47
2022-08-20T15:39:50.812Z,88.97
2022-08-20T15:42:20.347Z,90.20
2022-08-20T15:44:49.994Z,90.17
2022-08-20T15:47:24.412Z,86.00
2022-08-20T15:49:55.675Z,86.40
2022-08-20T15:52:25.061Z,86.07
2022-08-20T15:54:54.838Z,80.60
2022-08-20T15:57:38.360Z,82.53
2022-08-20T16:00:13.194Z,77.00
2022-08-20T16:03:14.292Z,75.97
2022-08-20T16:05:49.703Z,79.43
2022-08-20T16:08:26.470Z,75.60
2022-08-20T16:11:00.725Z,76.37
2022-08-20T16:13:33.319Z,76.00
2022-08-20T16:16:04.016Z,74.27
2022-08-20T16:18:35.288Z,75.90
2022-08-20T16:21:09.269Z,75.77
2022-08-20T16:23:39.526Z,76.83
2022-08-20T16:26:17.545Z,75.27
2022-08-20T16:28:53.573Z,75.07
2022-08-20T16:31:26.612Z,75.57
2022-08-20T16:34:02.095Z,75.20
2022-08-20T16:36:36.615Z,74.70
2022-08-20T16:39:06.530Z,74.57
2022-08-20T16:41:39.010Z,74.77
2022-08-20T16:44:13.645Z,73.80
2022-08-20T16:46:47.283Z,73.37
2022-08-20T16:49:15.599Z,73.00
2022-08-20T16:51:49.436Z,73.43
2022-08-20T16:54:28.496Z,77.63
2022-08-20T16:57:01.311Z,74.07
2022-08-20T16:59:29.465Z,72.53
2022-08-20T17:02:10.520Z,72.97
2022-08-20T17:04:50.447Z,74.00
2022-08-20T17:07:33.443Z,75.07
2022-08-20T17:10:17.473Z,74.43
2022-08-20T17:12:45.523Z,73.57
2022-08-20T17:15:21.816Z,74.07
2022-08-20T17:17:51.117Z,73.37
2022-08-20T17:20:20.681Z,73.60
2022-08-20T17:22:52.234Z,73.23
2022-08-20T17:25:23.067Z,75.27
2022-08-20T17:27:51.085Z,72.83
2022-08-20T17:30:24.549Z,74.27
2022-08-20T17:32:58.911Z,72.43
2022-08-20T17:35:33.506Z,78.50
2022-08-20T17:38:03.057Z,75.30
2022-08-20T17:40:35.657Z,74.40
2022-08-20T17:43:06.391Z,74.73
2022-08-20T17:45:39.736Z,73.07
2022-08-20T17:48:17.133Z,72.77
2022-08-20T17:50:45.578Z,72.53
2022-08-20T17:53:23.392Z,73.10
2022-08-20T17:55:56.304Z,77.80
2022-08-20T17:58:35.183Z,76.00
2022-08-20T18:01:03.175Z,73.47
2022-08-20T18:03:34.913Z,72.90
2022-08-20T18:06:04.757Z,72.40
2022-08-20T18:08:39.023Z,73.97
2022-08-20T18:11:14.857Z,72.53
2022-08-20T18:13:53.465Z,77.50
2022-08-20T18:16:27.961Z,72.20
2022-08-20T18:18:59.944Z,72.67
2022-08-20T18:21:54.377Z,73.50
2022-08-20T18:24:27.738Z,73.60
2022-08-20T18:27:00.019Z,77.47
2022-08-20T18:29:31.783Z,73.27
2022-08-20T18:32:01.510Z,72.93
2022-08-20T18:34:39.104Z,71.50
2022-08-20T18:37:22.750Z,71.60
2022-08-20T18:39:51.347Z,71.07
2022-08-20T18:42:29.566Z,74.17
2022-08-20T18:44:58.315Z,74.17
2022-08-20T18:47:29.954Z,74.07
2022-08-20T18:50:15.729Z,74.20
2022-08-20T18:52:48.177Z,72.63
2022-08-20T18:55:29.458Z,73.87
2022-08-20T18:57:59.987Z,73.37
2022-08-20T19:00:39.591Z,73.97
2022-08-20T19:03:18.577Z,73.10
2022-08-20T19:06:11.410Z,73.67
2022-08-20T19:08:48.347Z,73.27
2022-08-20T19:11:31.537Z,76.50
2022-08-20T19:14:46.234Z,73.90
2022-08-20T19:17:19.323Z,73.90
2022-08-20T19:19:58.757Z,75.53
2022-08-20T19:22:28.528Z,73.57
2022-08-20T19:24:58.754Z,76.57
2022-08-20T19:27:27.155Z,74.07
2022-08-20T19:29:57.729Z,74.83
2022-08-20T19:32:27.797Z,74.97
2022-08-20T19:34:57.420Z,75.30
2022-08-20T19:37:39.734Z,73.90
2022-08-20T19:40:27.621Z,72.50
2022-08-20T19:42:58.248Z,74.70
2022-08-20T19:45:30.982Z,75.87
2022-08-20T19:48:10.444Z,76.80
2022-08-20T19:50:43.448Z,75.97
2022-08-20T19:53:26.441Z,75.60
2022-08-20T19:56:01.908Z,78.27
2022-08-20T19:58:31.489Z,74.97
2022-08-20T20:00:59.814Z,74.67
2022-08-20T20:03:29.992Z,75.60
2022-08-20T20:06:02.378Z,75.80
2022-08-20T20:08:39.429Z,77.17
2022-08-20T20:11:09.096Z,74.50
2022-08-20T20:13:39.593Z,76.77
2022-08-20T20:16:08.293Z,76.87
2022-08-20T20:18:39.905Z,76.47
2022-08-20T20:21:13.991Z,76.47
2022-08-20T20:23:52.255Z,77.33
2022-08-20T20:26:20.929Z,75.37
2022-08-20T20:28:52.888Z,78.33
2022-08-20T20:31:23.585Z,76.83
2022-08-20T20:33:53.615Z,75.77
2022-08-20T20:36:36.401Z,76.10
2022-08-20T20:39:12.408Z,75.97
2022-08-20T20:41:52.364Z,77.40
2022-08-20T20:44:23.233Z,76.03
2022-08-20T20:46:54.161Z,82.47
2022-08-20T20:49:24.927Z,77.57
2022-08-20T20:51:55.315Z,77.90
2022-08-20T20:54:28.633Z,78.07
2022-08-20T20:57:04.858Z,78.77
2022-08-20T20:59:35.302Z,78.27
2022-08-20T21:02:04.021Z,83.27
2022-08-20T21:04:32.423Z,76.63
2022-08-20T21:07:07.329Z,78.87
2022-08-20T21:09:37.480Z,80.33
2022-08-20T21:12:06.377Z,78.97
2022-08-20T21:14:34.512Z,78.70
2022-08-20T21:17:04.895Z,78.60
2022-08-20T21:19:33.232Z,76.80
2022-08-20T21:22:01.513Z,76.77
2022-08-20T21:24:29.550Z,82.43
2022-08-20T21:27:01.542Z,77.47
2022-08-20T21:29:32.783Z,78.47
2022-08-20T21:32:01.339Z,77.23
2022-08-20T21:34:29.421Z,79.67
2022-08-20T21:36:57.526Z,77.93
2022-08-20T21:39:27.352Z,79.67
2022-08-20T21:41:55.843Z,77.60
2022-08-20T21:44:27.860Z,78.77
2022-08-20T21:46:58.193Z,76.93
2022-08-20T21:49:27.518Z,77.83
2022-08-20T21:51:55.647Z,77.20
2022-08-20T21:54:24.421Z,78.10
2022-08-20T21:56:55.230Z,77.97
2022-08-20T21:59:25.881Z,75.60
2022-08-20T22:01:54.163Z,76.37
2022-08-20T22:04:22.678Z,77.00
2022-08-20T22:06:51.120Z,78.77
2022-08-20T22:09:19.139Z,78.73
2022-08-20T22:11:52.047Z,76.70
2022-08-20T22:14:22.617Z,76.73
2022-08-20T22:16:51.964Z,79.50
2022-08-20T22:19:20.114Z,78.00
2022-08-20T22:21:49.459Z,77.10
2022-08-20T22:24:17.432Z,75.87
2022-08-20T22:26:45.534Z,79.30
2022-08-20T22:29:13.670Z,78.40
2022-08-20T22:31:44.070Z,78.13
2022-08-20T22:34:15.537Z,78.17
2022-08-20T22:36:43.933Z,76.70
2022-08-20T22:39:11.947Z,80.60
2022-08-20T22:41:40.395Z,78.47
2022-08-20T22:44:08.486Z,76.40
2022-08-20T22:46:43.661Z,77.33
2022-08-20T22:49:19.102Z,79.37
2022-08-20T22:51:47.135Z,78.00
2022-08-20T22:54:19.290Z,77.77
2022-08-20T22:56:47.341Z,78.70
2022-08-20T22:59:16.320Z,76.77
2022-08-20T23:01:45.571Z,77.47
2022-08-20T23:04:20.927Z,79.70
2022-08-20T23:06:49.110Z,76.47
2022-08-20T23:09:21.008Z,78.27
2022-08-20T23:11:49.357Z,78.57
2022-08-20T23:14:17.346Z,80.93
2022-08-20T23:16:47.461Z,78.80
2022-08-20T23:19:24.573Z,78.10
2022-08-20T23:21:53.121Z,77.17
2022-08-20T23:24:21.212Z,80.10
2022-08-20T23:26:53.325Z,77.67
2022-08-20T23:29:25.481Z,78.83
2022-08-20T23:31:55.122Z,76.47
2022-08-20T23:34:24.621Z,78.27
2022-08-20T23:36:52.785Z,78.47
2022-08-20T23:39:21.271Z,78.37
2022-08-20T23:41:49.255Z,80.03
2022-08-20T23:44:26.598Z,76.47
2022-08-20T23:46:56.236Z,77.77
2022-08-20T23:49:25.835Z,78.77
2022-08-20T23:51:53.910Z,77.27
2022-08-20T23:54:22.119Z,79.07
2022-08-20T23:56:50.437Z,83.00
2022-08-20T23:59:18.695Z,79.90
